Wetterstation Vordersexau
Wetterdaten: Woche 27.06.16 - 03.07.16 (KW26)
Datum Zeit Temp. A. Feuchte A. Luftdruck Regen Wind Richtung Taupunkt Windchill Windben
27.06.2016 00:00 12,4 C 82 % 1018,6 hPa 0,0 l/m 0,0 km/h SO 9,4 C 12,4 C 0,0 km/h
27.06.2016 01:00 11,6 C 83 % 1018,6 hPa 0,0 l/m 0,0 km/h SO 8,8 C 11,6 C 0,0 km/h
27.06.2016 02:00 11,2 C 84 % 1018,9 hPa 0,0 l/m 0,0 km/h O-SO 8,6 C 11,2 C 0,0 km/h
27.06.2016 03:00 10,9 C 85 % 1018,8 hPa 0,0 l/m 0,0 km/h O-SO 8,5 C 10,9 C 0,0 km/h
27.06.2016 04:00 10,5 C 85 % 1018,9 hPa 0,0 l/m 0,0 km/h O-SO 8,1 C 10,5 C 0,0 km/h
27.06.2016 05:00 10,2 C 85 % 1019,3 hPa 0,0 l/m 0,0 km/h O-SO 7,8 C 10,2 C 0,0 km/h
27.06.2016 06:00 10,6 C 85 % 1019,5 hPa 0,0 l/m 0,0 km/h O-SO 8,2 C 10,6 C 0,0 km/h
27.06.2016 07:00 14,3 C 84 % 1019,6 hPa 0,0 l/m 0,0 km/h O-SO 11,6 C 14,3 C 0,0 km/h
27.06.2016 08:00 21,9 C 66 % 1019,8 hPa 0,0 l/m 0,0 km/h S-SO 15,3 C 21,9 C 0,0 km/h
27.06.2016 09:00 25,0 C 56 % 1019,9 hPa 0,0 l/m 0,0 km/h W 15,6 C 25,0 C 0,0 km/h
27.06.2016 10:00 24,6 C 50 % 1019,8 hPa 0,0 l/m 10,4 km/h S-SW 13,5 C 23,6 C 5,8 km/h
27.06.2016 11:00 23,3 C 52 % 1019,3 hPa 0,0 l/m 0,0 km/h W 12,9 C 23,3 C 0,0 km/h
27.06.2016 12:00 23,8 C 46 % 1019,2 hPa 0,0 l/m 12,3 km/h W 11,5 C 22,3 C 6,8 km/h
27.06.2016 13:00 25,4 C 47 % 1018,8 hPa 0,0 l/m 2,6 km/h S 13,3 C 25,4 C 1,4 km/h
27.06.2016 14:00 25,0 C 51 % 1018,6 hPa 0,0 l/m 14,9 km/h W-NW 14,1 C 23,3 C 8,3 km/h
27.06.2016 15:00 23,7 C 51 % 1018,3 hPa 0,0 l/m 0,0 km/h NW 13,0 C 23,7 C 0,0 km/h
27.06.2016 16:00 28,0 C 42 % 1018,3 hPa 0,0 l/m 7,1 km/h NW 13,9 C 27,9 C 4,0 km/h
27.06.2016 17:00 30,6 C 37 % 1017,6 hPa 0,0 l/m 0,0 km/h N 14,2 C 30,6 C 0,0 km/h
27.06.2016 18:00 26,2 C 45 % 1017,5 hPa 0,0 l/m 0,0 km/h N-NO 13,3 C 26,2 C 0,0 km/h
27.06.2016 19:00 22,6 C 52 % 1017,8 hPa 0,0 l/m 1,3 km/h N 12,2 C 22,6 C 0,7 km/h
27.06.2016 20:00 20,3 C 63 % 1017,9 hPa 0,0 l/m 0,0 km/h N 13,0 C 20,3 C 0,0 km/h
27.06.2016 21:00 18,5 C 70 % 1018,3 hPa 0,0 l/m 0,0 km/h N 12,9 C 18,5 C 0,0 km/h
27.06.2016 22:00 17,8 C 74 % 1018,4 hPa 0,0 l/m 0,0 km/h N-NO 13,1 C 17,8 C 0,0 km/h
27.06.2016 23:00 17,3 C 76 % 1018,6 hPa 0,0 l/m 0,0 km/h O-NO 13,0 C 17,3 C 0,0 km/h
28.06.2016 00:00 16,9 C 78 % 1018,3 hPa 0,0 l/m 0,0 km/h O-NO 13,0 C 16,9 C 0,0 km/h
28.06.2016 01:00 16,5 C 80 % 1017,9 hPa 0,0 l/m 0,0 km/h O 13,0 C 16,5 C 0,0 km/h
28.06.2016 02:00 16,4 C 81 % 1017,8 hPa 0,0 l/m 0,0 km/h O 13,1 C 16,4 C 0,0 km/h
28.06.2016 03:00 16,1 C 81 % 1017,4 hPa 0,0 l/m 0,0 km/h O-SO 12,8 C 16,1 C 0,0 km/h
28.06.2016 04:00 14,6 C 83 % 1017,2 hPa 0,0 l/m 0,0 km/h O-SO 11,7 C 14,6 C 0,0 km/h
28.06.2016 05:00 14,5 C 84 % 1017,1 hPa 0,0 l/m 0,0 km/h O-SO 11,8 C 14,5 C 0,0 km/h
28.06.2016 06:00 15,7 C 84 % 1017,0 hPa 0,0 l/m 0,0 km/h O-SO 13,0 C 15,7 C 0,0 km/h
28.06.2016 07:00 17,9 C 81 % 1017,0 hPa 0,0 l/m 0,0 km/h SO 14,6 C 17,9 C 0,0 km/h
28.06.2016 08:00 21,3 C 72 % 1017,0 hPa 0,0 l/m 0,0 km/h S-SW 16,0 C 21,3 C 0,0 km/h
28.06.2016 09:00 24,9 C 66 % 1016,8 hPa 0,0 l/m 0,0 km/h W-SW 18,1 C 24,9 C 0,0 km/h
28.06.2016 10:00 25,8 C 57 % 1016,6 hPa 0,0 l/m 6,5 km/h W-NW 16,6 C 25,8 C 3,6 km/h
28.06.2016 11:00 26,3 C 55 % 1016,1 hPa 0,0 l/m 7,8 km/h W 16,5 C 26,0 C 4,3 km/h
28.06.2016 12:00 26,4 C 53 % 1015,5 hPa 0,0 l/m 7,8 km/h W 16,0 C 26,1 C 4,3 km/h
28.06.2016 13:00 27,3 C 49 % 1014,8 hPa 0,0 l/m 3,2 km/h W 15,6 C 27,3 C 1,8 km/h
28.06.2016 14:00 28,4 C 48 % 1014,3 hPa 0,0 l/m 4,5 km/h W-SW 16,3 C 28,4 C 2,5 km/h
28.06.2016 15:00 27,8 C 45 % 1013,7 hPa 0,0 l/m 13,0 km/h W-SW 14,8 C 26,9 C 7,2 km/h
28.06.2016 16:00 26,4 C 49 % 1013,2 hPa 0,0 l/m 2,6 km/h S-SW 14,8 C 26,4 C 1,4 km/h
28.06.2016 17:00 31,3 C 39 % 1012,7 hPa 0,0 l/m 9,1 km/h W 15,7 C 31,2 C 5,0 km/h
28.06.2016 18:00 28,7 C 43 % 1012,4 hPa 0,0 l/m 24,6 km/h NW 14,9 C 27,2 C 13,7 km/h
28.06.2016 19:00 24,2 C 61 % 1012,5 hPa 0,0 l/m 0,0 km/h W-NW 16,2 C 24,2 C 0,0 km/h
28.06.2016 20:00 20,9 C 71 % 1012,9 hPa 0,0 l/m 0,0 km/h W-NW 15,4 C 20,9 C 0,0 km/h
28.06.2016 21:00 17,9 C 76 % 1012,9 hPa 0,0 l/m 0,0 km/h W-NW 13,6 C 17,9 C 0,0 km/h
28.06.2016 22:00 16,5 C 81 % 1012,8 hPa 0,0 l/m 0,0 km/h N-NW 13,2 C 16,5 C 0,0 km/h
28.06.2016 23:00 17,3 C 83 % 1012,9 hPa 0,0 l/m 0,0 km/h N-NW 14,4 C 17,3 C 0,0 km/h
29.06.2016 00:00 17,1 C 83 % 1012,9 hPa 0,0 l/m 0,0 km/h N-NW 14,2 C 17,1 C 0,0 km/h
29.06.2016 01:00 17,1 C 84 % 1012,8 hPa 0,0 l/m 0,0 km/h N 14,4 C 17,1 C 0,0 km/h
29.06.2016 02:00 17,3 C 84 % 1012,7 hPa 0,0 l/m 0,0 km/h N 14,6 C 17,3 C 0,0 km/h
29.06.2016 03:00 17,4 C 84 % 1012,8 hPa 0,0 l/m 0,0 km/h N 14,7 C 17,4 C 0,0 km/h
29.06.2016 04:00 17,5 C 83 % 1013,0 hPa 0,0 l/m 0,0 km/h N 14,6 C 17,5 C 0,0 km/h
29.06.2016 05:00 17,3 C 84 % 1013,2 hPa 0,0 l/m 0,0 km/h W-SW 14,6 C 17,3 C 0,0 km/h
29.06.2016 06:00 18,2 C 81 % 1013,1 hPa 0,0 l/m 4,5 km/h W-SW 14,9 C 18,2 C 2,5 km/h
29.06.2016 07:00 18,6 C 80 % 1013,5 hPa 0,0 l/m 0,0 km/h W-SW 15,1 C 18,6 C 0,0 km/h
29.06.2016 08:00 20,4 C 76 % 1013,7 hPa 0,0 l/m 20,7 km/h S-SW 16,0 C 16,6 C 11,5 km/h
29.06.2016 09:00 25,1 C 61 % 1014,0 hPa 0,0 l/m 9,7 km/h S-SO 17,0 C 24,3 C 5,4 km/h
29.06.2016 10:00 23,1 C 64 % 1013,8 hPa 0,0 l/m 23,3 km/h S 15,9 C 19,8 C 13,0 km/h
29.06.2016 11:00 22,6 C 65 % 1013,6 hPa 0,0 l/m 0,0 km/h S 15,7 C 22,6 C 0,0 km/h
29.06.2016 12:00 24,3 C 62 % 1013,4 hPa 0,0 l/m 9,7 km/h W-SW 16,5 C 23,5 C 5,4 km/h
29.06.2016 13:00 25,6 C 58 % 1012,7 hPa 0,0 l/m 13,6 km/h W 16,7 C 24,2 C 7,6 km/h
29.06.2016 14:00 28,2 C 51 % 1012,0 hPa 0,0 l/m 0,0 km/h W 17,1 C 28,2 C 0,0 km/h
29.06.2016 15:00 28,2 C 49 % 1011,3 hPa 0,0 l/m 14,3 km/h S-SW 16,5 C 27,2 C 7,9 km/h
29.06.2016 16:00 29,4 C 45 % 1010,9 hPa 0,0 l/m 5,2 km/h SW 16,2 C 29,4 C 2,9 km/h
29.06.2016 17:00 31,3 C 41 % 1010,5 hPa 0,0 l/m 24,6 km/h W 16,4 C 30,7 C 13,7 km/h
29.06.2016 18:00 29,9 C 43 % 1010,0 hPa 0,0 l/m 7,8 km/h W-SW 15,9 C 29,8 C 4,3 km/h
29.06.2016 19:00 24,5 C 54 % 1010,4 hPa 0,0 l/m 10,4 km/h W 14,6 C 23,5 C 5,8 km/h
29.06.2016 20:00 22,6 C 60 % 1010,4 hPa 0,0 l/m 0,0 km/h W 14,4 C 22,6 C 0,0 km/h
29.06.2016 21:00 18,6 C 71 % 1010,8 hPa 0,0 l/m 0,0 km/h W 13,2 C 18,6 C 0,0 km/h
29.06.2016 22:00 17,5 C 77 % 1011,5 hPa 0,0 l/m 0,0 km/h W 13,4 C 17,5 C 0,0 km/h
29.06.2016 23:00 16,4 C 80 % 1011,2 hPa 0,0 l/m 0,0 km/h O-NO 12,9 C 16,4 C 0,0 km/h
30.06.2016 00:00 16,6 C 82 % 1010,5 hPa 0,0 l/m 0,0 km/h O-NO 13,5 C 16,6 C 0,0 km/h
30.06.2016 01:00 17,0 C 83 % 1011,5 hPa 0,0 l/m 0,0 km/h SO 14,1 C 17,0 C 0,0 km/h
30.06.2016 02:00 16,3 C 83 % 1011,7 hPa 0,0 l/m 0,0 km/h O-SO 13,4 C 16,3 C 0,0 km/h
30.06.2016 03:00 16,1 C 84 % 1012,2 hPa 0,4 l/m 0,0 km/h O-SO 13,4 C 16,1 C 0,0 km/h
30.06.2016 04:00 16,6 C 85 % 1012,3 hPa 0,0 l/m 0,0 km/h O-NO 14,1 C 16,6 C 0,0 km/h
30.06.2016 05:00 16,5 C 85 % 1012,9 hPa 0,0 l/m 0,0 km/h O-NO 14,0 C 16,5 C 0,0 km/h
30.06.2016 06:00 16,6 C 84 % 1013,4 hPa 0,8 l/m 0,0 km/h S-SO 13,9 C 16,6 C 0,0 km/h
30.06.2016 07:00 16,9 C 84 % 1013,4 hPa 0,4 l/m 4,5 km/h S-SO 14,2 C 16,9 C 2,5 km/h
30.06.2016 08:00 18,9 C 84 % 1013,9 hPa 0,4 l/m 0,0 km/h SO 16,1 C 18,9 C 0,0 km/h
30.06.2016 09:00 20,6 C 82 % 1014,0 hPa 0,0 l/m 0,0 km/h S 17,4 C 20,6 C 0,0 km/h
30.06.2016 10:00 23,8 C 71 % 1013,5 hPa 0,0 l/m 9,7 km/h W-SW 18,2 C 22,9 C 5,4 km/h
30.06.2016 11:00 23,9 C 64 % 1013,6 hPa 0,0 l/m 14,3 km/h S 16,7 C 22,1 C 7,9 km/h
30.06.2016 12:00 24,5 C 61 % 1013,6 hPa 0,0 l/m 7,1 km/h W-SW 16,5 C 24,3 C 4,0 km/h
30.06.2016 13:00 25,6 C 63 % 1013,2 hPa 0,0 l/m 21,4 km/h S 18,0 C 23,3 C 11,9 km/h
30.06.2016 14:00 28,3 C 53 % 1013,1 hPa 0,0 l/m 0,0 km/h W-SW 17,8 C 28,3 C 0,0 km/h
30.06.2016 15:00 27,9 C 54 % 1012,9 hPa 0,0 l/m 3,2 km/h S 17,7 C 27,9 C 1,8 km/h
30.06.2016 16:00 26,6 C 56 % 1012,7 hPa 0,0 l/m 1,9 km/h W-SW 17,1 C 26,6 C 1,1 km/h
30.06.2016 17:00 30,3 C 49 % 1012,4 hPa 0,0 l/m 1,9 km/h W-NW 18,4 C 30,3 C 1,1 km/h
30.06.2016 18:00 24,9 C 56 % 1012,3 hPa 0,0 l/m 16,2 km/h W-SW 15,5 C 23,0 C 9,0 km/h
30.06.2016 19:00 22,9 C 64 % 1012,7 hPa 0,0 l/m 0,0 km/h N-NO 15,7 C 22,9 C 0,0 km/h
30.06.2016 20:00 21,8 C 68 % 1013,2 hPa 0,0 l/m 15,6 km/h N-NO 15,6 C 19,3 C 8,6 km/h
30.06.2016 21:00 20,0 C 69 % 1014,3 hPa 0,0 l/m 0,0 km/h N-NO 14,1 C 20,0 C 0,0 km/h
30.06.2016 22:00 18,1 C 77 % 1014,8 hPa 0,0 l/m 0,0 km/h N-NO 14,0 C 18,1 C 0,0 km/h
30.06.2016 23:00 17,9 C 78 % 1014,7 hPa 0,0 l/m 0,0 km/h N-NO 14,0 C 17,9 C 0,0 km/h
01.07.2016 00:00 17,0 C 81 % 1014,6 hPa 0,0 l/m 0,0 km/h O-SO 13,7 C 17,0 C 0,0 km/h
01.07.2016 01:00 16,1 C 82 % 1014,7 hPa 0,0 l/m 0,0 km/h O-SO 13,0 C 16,1 C 0,0 km/h
01.07.2016 02:00 15,6 C 84 % 1014,8 hPa 0,0 l/m 0,0 km/h O-SO 12,9 C 15,6 C 0,0 km/h
01.07.2016 03:00 15,4 C 84 % 1014,6 hPa 0,0 l/m 0,0 km/h O-SO 12,7 C 15,4 C 0,0 km/h
01.07.2016 04:00 14,3 C 84 % 1014,7 hPa 0,0 l/m 0,0 km/h O-SO 11,6 C 14,3 C 0,0 km/h
01.07.2016 05:00 13,9 C 85 % 1015,0 hPa 0,0 l/m 0,0 km/h O-SO 11,4 C 13,9 C 0,0 km/h
01.07.2016 06:00 16,1 C 84 % 1015,4 hPa 0,0 l/m 0,0 km/h O-SO 13,4 C 16,1 C 0,0 km/h
01.07.2016 07:00 18,1 C 84 % 1015,6 hPa 0,0 l/m 0,0 km/h NO 15,4 C 18,1 C 0,0 km/h
01.07.2016 08:00 20,9 C 80 % 1015,9 hPa 0,0 l/m 0,0 km/h SW 17,3 C 20,9 C 0,0 km/h
01.07.2016 09:00 24,9 C 64 % 1015,8 hPa 0,0 l/m 20,1 km/h W-SW 17,6 C 22,5 C 11,2 km/h
01.07.2016 10:00 26,6 C 56 % 1015,6 hPa 0,0 l/m 7,1 km/h S-SW 17,1 C 26,5 C 4,0 km/h
01.07.2016 11:00 26,6 C 54 % 1015,8 hPa 0,0 l/m 20,1 km/h W-SW 16,5 C 24,7 C 11,2 km/h
01.07.2016 12:00 26,8 C 54 % 1015,3 hPa 0,0 l/m 23,3 km/h W 16,7 C 24,7 C 13,0 km/h
01.07.2016 13:00 28,1 C 50 % 1014,7 hPa 0,0 l/m 7,8 km/h SW 16,7 C 27,9 C 4,3 km/h
01.07.2016 14:00 28,9 C 50 % 1014,3 hPa 0,0 l/m 3,2 km/h W-SW 17,4 C 28,9 C 1,8 km/h
01.07.2016 15:00 28,9 C 49 % 1013,7 hPa 0,0 l/m 24,6 km/h S-SW 17,1 C 27,5 C 13,7 km/h
01.07.2016 16:00 30,0 C 46 % 1013,2 hPa 0,0 l/m 20,1 km/h SW 17,1 C 29,1 C 11,2 km/h
01.07.2016 17:00 32,8 C 42 % 1012,7 hPa 0,0 l/m 1,9 km/h W-SW 18,2 C 32,8 C 1,1 km/h
01.07.2016 18:00 30,9 C 45 % 1012,4 hPa 0,0 l/m 3,9 km/h SW 17,6 C 30,9 C 2,2 km/h
01.07.2016 19:00 25,9 C 57 % 1012,5 hPa 0,0 l/m 0,0 km/h W-SW 16,7 C 25,9 C 0,0 km/h
01.07.2016 20:00 23,4 C 60 % 1012,3 hPa 0,0 l/m 0,0 km/h W-SW 15,2 C 23,4 C 0,0 km/h
01.07.2016 21:00 20,2 C 71 % 1012,8 hPa 0,0 l/m 0,0 km/h W-NW 14,8 C 20,2 C 0,0 km/h
01.07.2016 22:00 18,4 C 77 % 1012,9 hPa 0,0 l/m 0,0 km/h NW 14,3 C 18,4 C 0,0 km/h
01.07.2016 23:00 18,2 C 81 % 1012,5 hPa 0,0 l/m 0,0 km/h NW 14,9 C 18,2 C 0,0 km/h
02.07.2016 00:00 18,4 C 80 % 1012,2 hPa 0,0 l/m 0,0 km/h SO 14,9 C 18,4 C 0,0 km/h
02.07.2016 01:00 18,1 C 81 % 1011,6 hPa 0,0 l/m 0,0 km/h SO 14,8 C 18,1 C 0,0 km/h
02.07.2016 02:00 17,8 C 81 % 1011,5 hPa 0,0 l/m 0,0 km/h SO 14,5 C 17,8 C 0,0 km/h
02.07.2016 03:00 17,8 C 83 % 1012,8 hPa 2,1 l/m 0,0 km/h NO 14,9 C 17,8 C 0,0 km/h
02.07.2016 04:00 17,2 C 84 % 1012,8 hPa 3,3 l/m 0,0 km/h S 14,5 C 17,2 C 0,0 km/h
02.07.2016 05:00 17,1 C 84 % 1012,8 hPa 0,8 l/m 5,2 km/h SW 14,4 C 17,1 C 2,9 km/h
02.07.2016 06:00 17,6 C 84 % 1012,8 hPa 0,0 l/m 0,0 km/h S 14,9 C 17,6 C 0,0 km/h
02.07.2016 07:00 17,9 C 84 % 1013,1 hPa 0,0 l/m 7,8 km/h S 15,2 C 17,2 C 4,3 km/h
02.07.2016 08:00 17,8 C 84 % 1013,8 hPa 0,4 l/m 0,0 km/h S 15,1 C 17,8 C 0,0 km/h
02.07.2016 09:00 18,5 C 83 % 1014,2 hPa 0,0 l/m 14,3 km/h S 15,6 C 15,6 C 7,9 km/h
02.07.2016 10:00 18,3 C 81 % 1014,0 hPa 0,0 l/m 16,2 km/h SW 15,0 C 14,9 C 9,0 km/h
02.07.2016 11:00 19,9 C 76 % 1014,1 hPa 0,0 l/m 18,8 km/h W-SW 15,5 C 16,3 C 10,4 km/h
02.07.2016 12:00 18,4 C 79 % 1014,4 hPa 0,0 l/m 7,8 km/h W-SW 14,7 C 17,8 C 4,3 km/h
02.07.2016 13:00 18,5 C 81 % 1014,9 hPa 0,0 l/m 17,5 km/h N-NO 15,2 C 14,8 C 9,7 km/h
02.07.2016 14:00 16,6 C 79 % 1015,9 hPa 0,0 l/m 1,9 km/h N-NO 12,9 C 16,6 C 1,1 km/h
02.07.2016 15:00 17,8 C 78 % 1016,4 hPa 0,0 l/m 8,4 km/h N 13,9 C 16,9 C 4,7 km/h
02.07.2016 16:00 16,9 C 74 % 1016,6 hPa 0,0 l/m 0,0 km/h SO 12,2 C 16,9 C 0,0 km/h
02.07.2016 17:00 16,6 C 77 % 1017,1 hPa 0,0 l/m 0,0 km/h SO 12,5 C 16,6 C 0,0 km/h
02.07.2016 18:00 16,2 C 80 % 1017,6 hPa 0,0 l/m 0,0 km/h O-SO 12,7 C 16,2 C 0,0 km/h
02.07.2016 19:00 17,6 C 78 % 1017,7 hPa 0,0 l/m 0,0 km/h SO 13,7 C 17,6 C 0,0 km/h
02.07.2016 20:00 15,4 C 79 % 1018,2 hPa 0,0 l/m 0,0 km/h O-NO 11,8 C 15,4 C 0,0 km/h
02.07.2016 21:00 12,9 C 84 % 1018,9 hPa 0,0 l/m 0,0 km/h O 10,3 C 12,9 C 0,0 km/h
02.07.2016 22:00 11,9 C 85 % 1019,3 hPa 0,0 l/m 0,0 km/h O 9,5 C 11,9 C 0,0 km/h
02.07.2016 23:00 12,1 C 85 % 1019,3 hPa 0,0 l/m 0,0 km/h SO 9,7 C 12,1 C 0,0 km/h
03.07.2016 00:00 11,3 C 85 % 1019,3 hPa 0,0 l/m 0,0 km/h SO 8,9 C 11,3 C 0,0 km/h
03.07.2016 01:00 11,3 C 85 % 1019,3 hPa 0,0 l/m 0,0 km/h SO 8,9 C 11,3 C 0,0 km/h
03.07.2016 02:00 10,8 C 85 % 1019,4 hPa 0,0 l/m 0,0 km/h SO 8,4 C 10,8 C 0,0 km/h
03.07.2016 03:00 10,3 C 85 % 1019,0 hPa 0,0 l/m 0,0 km/h SO 7,9 C 10,3 C 0,0 km/h
03.07.2016 04:00 10,2 C 85 % 1019,1 hPa 0,0 l/m 0,0 km/h SO 7,8 C 10,2 C 0,0 km/h
03.07.2016 05:00 10,3 C 84 % 1019,5 hPa 0,0 l/m 0,0 km/h SO 7,7 C 10,3 C 0,0 km/h
03.07.2016 06:00 11,4 C 83 % 1019,7 hPa 0,0 l/m 0,0 km/h SO 8,6 C 11,4 C 0,0 km/h
03.07.2016 07:00 14,6 C 79 % 1019,6 hPa 0,0 l/m 2,6 km/h O-SO 11,0 C 14,6 C 1,4 km/h
03.07.2016 08:00 17,9 C 85 % 1019,9 hPa 0,0 l/m 0,0 km/h S-SW 15,3 C 17,9 C 0,0 km/h
03.07.2016 09:00 24,6 C 60 % 1019,5 hPa 0,0 l/m 0,0 km/h W 16,3 C 24,6 C 0,0 km/h
03.07.2016 10:00 23,3 C 54 % 1019,4 hPa 0,0 l/m 3,9 km/h SW 13,5 C 23,3 C 2,2 km/h
03.07.2016 11:00 23,8 C 48 % 1019,2 hPa 0,0 l/m 22,7 km/h W 12,1 C 20,8 C 12,6 km/h
03.07.2016 12:00 21,4 C 49 % 1019,0 hPa 0,0 l/m 0,0 km/h SW 10,2 C 21,4 C 0,0 km/h
03.07.2016 13:00 23,4 C 47 % 1018,6 hPa 0,0 l/m 7,1 km/h W 11,4 C 23,2 C 4,0 km/h
03.07.2016 14:00 23,3 C 45 % 1018,3 hPa 0,0 l/m 3,2 km/h W-NW 10,7 C 23,3 C 1,8 km/h
03.07.2016 15:00 23,9 C 45 % 1018,4 hPa 0,0 l/m 16,2 km/h W 11,2 C 21,8 C 9,0 km/h
03.07.2016 16:00 22,4 C 49 % 1018,4 hPa 0,0 l/m 1,3 km/h N-NO 11,2 C 22,4 C 0,7 km/h
03.07.2016 17:00 23,3 C 49 % 1018,7 hPa 0,0 l/m 0,0 km/h N-NO 12,0 C 23,3 C 0,0 km/h
03.07.2016 18:00 20,9 C 53 % 1018,8 hPa 0,0 l/m 0,0 km/h N 11,0 C 20,9 C 0,0 km/h
03.07.2016 19:00 19,8 C 56 % 1019,2 hPa 0,0 l/m 0,6 km/h N 10,8 C 19,8 C 0,4 km/h
03.07.2016 20:00 18,4 C 66 % 1019,6 hPa 0,0 l/m 0,0 km/h N 11,9 C 18,4 C 0,0 km/h
03.07.2016 21:00 16,1 C 71 % 1020,1 hPa 0,0 l/m 0,0 km/h N 10,8 C 16,1 C 0,0 km/h
03.07.2016 22:00 14,7 C 75 % 1020,2 hPa 0,0 l/m 0,0 km/h N 10,3 C 14,7 C 0,0 km/h
03.07.2016 23:00 13,3 C 78 % 1020,5 hPa 0,0 l/m 0,0 km/h N 9,5 C 13,3 C 0,0 km/h
Min-Datum _ 27.06.16 27.06.16 29.06.16 - 27.06.16 - 03.07.16 27.06.16 27.06.16
_ Min-Zeit 05:41 17:56 18:56 - 00:41 - 05:56 05:41 00:41
Minimum _ 10,2 C 37 % 1010,0 hPa - 0,0 km/h - 7,7 C 10,2 C 0,0 km/h
Max-Datum _ 01.07.16 27.06.16 03.07.16 02.07.16 28.06.16 - 30.06.16 01.07.16 28.06.16
_ Max-Zeit 17:56 03:41 23:56 04:56 18:56 - 17:56 17:56 18:56
Maximum _ 32,8 C 85 % 1020,5 hPa 3,3 l/m 24,6 km/h
NW
- 18,4 C 32,8 C 13,7 km/h
NW
Durchschnitt _ 20,2 C 69 % 1015,4 hPa #8,7 l/m 3,9 km/h O-SO 13,9 C 19,8 C 2,2 km/h
www.sexauwetter.de